sensor_id;sensor_type;location;lat;lon;timestamp;temperature;humidity
11848;DHT22;5983;49.966;8.052;2023-05-24T00:00:53;11.10;99.90
11848;DHT22;5983;49.966;8.052;2023-05-24T00:03:20;11.10;99.90
11848;DHT22;5983;49.966;8.052;2023-05-24T00:05:48;11.00;99.90
11848;DHT22;5983;49.966;8.052;2023-05-24T00:08:16;11.00;99.90
11848;DHT22;5983;49.966;8.052;2023-05-24T00:10:43;10.90;99.90
11848;DHT22;5983;49.966;8.052;2023-05-24T00:13:09;10.90;99.90
11848;DHT22;5983;49.966;8.052;2023-05-24T00:15:36;10.90;99.90
11848;DHT22;5983;49.966;8.052;2023-05-24T00:18:03;10.90;99.90
11848;DHT22;5983;49.966;8.052;2023-05-24T00:20:30;10.80;99.90
11848;DHT22;5983;49.966;8.052;2023-05-24T00:22:58;10.80;99.90
11848;DHT22;5983;49.966;8.052;2023-05-24T00:25:25;10.80;99.90
11848;DHT22;5983;49.966;8.052;2023-05-24T00:27:51;10.70;99.90
11848;DHT22;5983;49.966;8.052;2023-05-24T00:30:18;10.70;99.90
11848;DHT22;5983;49.966;8.052;2023-05-24T00:32:45;10.60;99.90
11848;DHT22;5983;49.966;8.052;2023-05-24T00:35:11;10.50;99.90
11848;DHT22;5983;49.966;8.052;2023-05-24T00:37:38;10.50;99.90
11848;DHT22;5983;49.966;8.052;2023-05-24T00:40:10;10.40;99.90
11848;DHT22;5983;49.966;8.052;2023-05-24T00:42:38;10.40;99.90
11848;DHT22;5983;49.966;8.052;2023-05-24T00:45:05;10.40;99.90
11848;DHT22;5983;49.966;8.052;2023-05-24T00:47:32;10.30;99.90
11848;DHT22;5983;49.966;8.052;2023-05-24T00:49:59;10.30;99.90
11848;DHT22;5983;49.966;8.052;2023-05-24T00:52:26;10.30;99.90
11848;DHT22;5983;49.966;8.052;2023-05-24T00:54:53;10.30;99.90
11848;DHT22;5983;49.966;8.052;2023-05-24T00:57:21;10.20;99.90
11848;DHT22;5983;49.966;8.052;2023-05-24T00:59:49;10.20;99.90
11848;DHT22;5983;49.966;8.052;2023-05-24T01:02:16;10.10;99.90
11848;DHT22;5983;49.966;8.052;2023-05-24T01:04:43;10.10;99.90
11848;DHT22;5983;49.966;8.052;2023-05-24T01:07:14;10.10;99.90
11848;DHT22;5983;49.966;8.052;2023-05-24T01:09:49;10.00;99.90
11848;DHT22;5983;49.966;8.052;2023-05-24T01:12:27;10.00;99.90
11848;DHT22;5983;49.966;8.052;2023-05-24T01:15:03;10.00;99.90
11848;DHT22;5983;49.966;8.052;2023-05-24T01:17:35;9.90;99.90
11848;DHT22;5983;49.966;8.052;2023-05-24T01:20:10;9.90;99.90
11848;DHT22;5983;49.966;8.052;2023-05-24T01:22:59;9.80;99.90
11848;DHT22;5983;49.966;8.052;2023-05-24T01:25:38;9.80;99.90
11848;DHT22;5983;49.966;8.052;2023-05-24T01:28:12;9.70;99.90
11848;DHT22;5983;49.966;8.052;2023-05-24T01:30:41;9.70;99.90
11848;DHT22;5983;49.966;8.052;2023-05-24T01:33:08;9.70;99.90
11848;DHT22;5983;49.966;8.052;2023-05-24T01:35:35;9.60;99.90
11848;DHT22;5983;49.966;8.052;2023-05-24T01:38:04;9.60;99.90
11848;DHT22;5983;49.966;8.052;2023-05-24T01:40:31;9.60;99.90
11848;DHT22;5983;49.966;8.052;2023-05-24T01:43:02;9.60;99.90
11848;DHT22;5983;49.966;8.052;2023-05-24T01:45:34;9.60;99.90
11848;DHT22;5983;49.966;8.052;2023-05-24T01:48:07;9.50;99.90
11848;DHT22;5983;49.966;8.052;2023-05-24T01:50:44;9.50;99.90
11848;DHT22;5983;49.966;8.052;2023-05-24T01:53:15;9.60;99.90
11848;DHT22;5983;49.966;8.052;2023-05-24T01:55:45;9.60;99.90
11848;DHT22;5983;49.966;8.052;2023-05-24T01:58:13;9.50;99.90
11848;DHT22;5983;49.966;8.052;2023-05-24T02:00:43;9.50;99.90
11848;DHT22;5983;49.966;8.052;2023-05-24T02:03:11;9.50;99.90
11848;DHT22;5983;49.966;8.052;2023-05-24T02:05:39;9.40;99.90
11848;DHT22;5983;49.966;8.052;2023-05-24T02:08:06;9.40;99.90
11848;DHT22;5983;49.966;8.052;2023-05-24T02:10:33;9.30;99.90
11848;DHT22;5983;49.966;8.052;2023-05-24T02:13:02;9.30;99.90
11848;DHT22;5983;49.966;8.052;2023-05-24T02:15:29;9.30;99.90
11848;DHT22;5983;49.966;8.052;2023-05-24T02:17:57;9.30;99.90
11848;DHT22;5983;49.966;8.052;2023-05-24T02:20:25;9.30;99.90
11848;DHT22;5983;49.966;8.052;2023-05-24T02:22:55;9.30;99.90
11848;DHT22;5983;49.966;8.052;2023-05-24T02:25:21;9.40;99.90
11848;DHT22;5983;49.966;8.052;2023-05-24T02:27:48;9.40;99.90
11848;DHT22;5983;49.966;8.052;2023-05-24T02:30:16;9.40;99.90
11848;DHT22;5983;49.966;8.052;2023-05-24T02:32:43;9.40;99.90
11848;DHT22;5983;49.966;8.052;2023-05-24T02:35:12;9.40;99.90
11848;DHT22;5983;49.966;8.052;2023-05-24T02:37:39;9.40;99.90
11848;DHT22;5983;49.966;8.052;2023-05-24T02:40:06;9.40;99.90
11848;DHT22;5983;49.966;8.052;2023-05-24T02:42:33;9.40;99.90
11848;DHT22;5983;49.966;8.052;2023-05-24T02:45:00;9.50;99.90
11848;DHT22;5983;49.966;8.052;2023-05-24T02:47:27;9.40;99.90
11848;DHT22;5983;49.966;8.052;2023-05-24T02:49:54;9.40;99.90
11848;DHT22;5983;49.966;8.052;2023-05-24T02:52:22;9.40;99.90
11848;DHT22;5983;49.966;8.052;2023-05-24T02:54:49;9.40;99.90
11848;DHT22;5983;49.966;8.052;2023-05-24T02:57:16;9.40;99.90
11848;DHT22;5983;49.966;8.052;2023-05-24T02:59:42;9.50;99.90
11848;DHT22;5983;49.966;8.052;2023-05-24T03:02:09;9.40;99.90
11848;DHT22;5983;49.966;8.052;2023-05-24T03:04:38;9.40;99.90
11848;DHT22;5983;49.966;8.052;2023-05-24T03:07:05;9.30;99.90
11848;DHT22;5983;49.966;8.052;2023-05-24T03:09:33;9.30;99.90
11848;DHT22;5983;49.966;8.052;2023-05-24T03:12:00;9.30;99.90
11848;DHT22;5983;49.966;8.052;2023-05-24T03:14:27;9.30;99.90
11848;DHT22;5983;49.966;8.052;2023-05-24T03:16:53;9.20;99.90
11848;DHT22;5983;49.966;8.052;2023-05-24T03:19:20;9.20;99.90
11848;DHT22;5983;49.966;8.052;2023-05-24T03:21:47;9.20;99.90
11848;DHT22;5983;49.966;8.052;2023-05-24T03:24:14;9.20;99.90
11848;DHT22;5983;49.966;8.052;2023-05-24T03:26:42;9.10;99.90
11848;DHT22;5983;49.966;8.052;2023-05-24T03:29:09;9.10;99.90
11848;DHT22;5983;49.966;8.052;2023-05-24T03:31:35;9.10;99.90
11848;DHT22;5983;49.966;8.052;2023-05-24T03:34:02;9.10;99.90
11848;DHT22;5983;49.966;8.052;2023-05-24T03:36:29;9.10;99.90
11848;DHT22;5983;49.966;8.052;2023-05-24T03:38:56;9.10;99.90
11848;DHT22;5983;49.966;8.052;2023-05-24T03:41:23;9.10;99.90
11848;DHT22;5983;49.966;8.052;2023-05-24T03:43:51;9.10;99.90
11848;DHT22;5983;49.966;8.052;2023-05-24T03:46:18;9.10;99.90
11848;DHT22;5983;49.966;8.052;2023-05-24T03:48:45;9.10;99.90
11848;DHT22;5983;49.966;8.052;2023-05-24T03:51:11;9.10;99.90
11848;DHT22;5983;49.966;8.052;2023-05-24T03:53:38;9.10;99.90
11848;DHT22;5983;49.966;8.052;2023-05-24T03:56:05;9.10;99.90
11848;DHT22;5983;49.966;8.052;2023-05-24T03:58:32;9.10;99.90
11848;DHT22;5983;49.966;8.052;2023-05-24T04:01:00;9.10;99.90
11848;DHT22;5983;49.966;8.052;2023-05-24T04:03:26;9.00;99.90
11848;DHT22;5983;49.966;8.052;2023-05-24T04:05:53;9.00;99.90
11848;DHT22;5983;49.966;8.052;2023-05-24T04:08:20;9.00;99.90
11848;DHT22;5983;49.966;8.052;2023-05-24T04:10:46;9.00;99.90
11848;DHT22;5983;49.966;8.052;2023-05-24T04:13:13;9.10;99.90
11848;DHT22;5983;49.966;8.052;2023-05-24T04:15:40;9.00;99.90
11848;DHT22;5983;49.966;8.052;2023-05-24T04:18:09;9.10;99.90
11848;DHT22;5983;49.966;8.052;2023-05-24T04:20:36;9.10;99.90
11848;DHT22;5983;49.966;8.052;2023-05-24T04:23:02;9.20;99.90
11848;DHT22;5983;49.966;8.052;2023-05-24T04:25:29;9.20;99.90
11848;DHT22;5983;49.966;8.052;2023-05-24T04:27:57;9.30;99.90
11848;DHT22;5983;49.966;8.052;2023-05-24T04:30:24;9.30;99.90
11848;DHT22;5983;49.966;8.052;2023-05-24T04:32:53;9.40;99.90
11848;DHT22;5983;49.966;8.052;2023-05-24T04:35:22;9.40;99.90
11848;DHT22;5983;49.966;8.052;2023-05-24T04:37:49;9.50;99.90
11848;DHT22;5983;49.966;8.052;2023-05-24T04:40:16;9.50;99.90
11848;DHT22;5983;49.966;8.052;2023-05-24T04:42:44;9.60;99.90
11848;DHT22;5983;49.966;8.052;2023-05-24T04:45:11;9.70;99.90
11848;DHT22;5983;49.966;8.052;2023-05-24T04:47:38;9.80;99.90
11848;DHT22;5983;49.966;8.052;2023-05-24T04:50:06;9.90;99.90
11848;DHT22;5983;49.966;8.052;2023-05-24T04:52:35;9.90;99.90
11848;DHT22;5983;49.966;8.052;2023-05-24T04:55:01;10.00;99.90
11848;DHT22;5983;49.966;8.052;2023-05-24T04:57:28;10.10;99.90
11848;DHT22;5983;49.966;8.052;2023-05-24T04:59:55;10.20;99.90
11848;DHT22;5983;49.966;8.052;2023-05-24T05:02:21;10.20;99.90
11848;DHT22;5983;49.966;8.052;2023-05-24T05:04:50;10.30;99.90
11848;DHT22;5983;49.966;8.052;2023-05-24T05:07:17;10.40;99.90
11848;DHT22;5983;49.966;8.052;2023-05-24T05:09:45;10.50;99.90
11848;DHT22;5983;49.966;8.052;2023-05-24T05:12:12;10.60;99.90
11848;DHT22;5983;49.966;8.052;2023-05-24T05:14:39;10.70;99.90
11848;DHT22;5983;49.966;8.052;2023-05-24T05:17:06;10.70;99.90
11848;DHT22;5983;49.966;8.052;2023-05-24T05:19:32;10.80;99.90
11848;DHT22;5983;49.966;8.052;2023-05-24T05:22:00;10.90;99.90
11848;DHT22;5983;49.966;8.052;2023-05-24T05:24:26;11.00;99.90
11848;DHT22;5983;49.966;8.052;2023-05-24T05:26:54;11.10;99.90
11848;DHT22;5983;49.966;8.052;2023-05-24T05:29:21;11.20;99.90
11848;DHT22;5983;49.966;8.052;2023-05-24T05:31:48;11.20;99.90
11848;DHT22;5983;49.966;8.052;2023-05-24T05:34:14;11.30;99.90
11848;DHT22;5983;49.966;8.052;2023-05-24T05:36:41;11.40;99.90
11848;DHT22;5983;49.966;8.052;2023-05-24T05:39:08;11.50;99.90
11848;DHT22;5983;49.966;8.052;2023-05-24T05:41:35;11.50;99.90
11848;DHT22;5983;49.966;8.052;2023-05-24T05:44:04;11.60;99.90
11848;DHT22;5983;49.966;8.052;2023-05-24T05:46:31;11.70;99.90
11848;DHT22;5983;49.966;8.052;2023-05-24T05:48:57;11.70;99.90
11848;DHT22;5983;49.966;8.052;2023-05-24T05:51:24;11.80;99.90
11848;DHT22;5983;49.966;8.052;2023-05-24T05:53:51;11.80;99.90
11848;DHT22;5983;49.966;8.052;2023-05-24T05:56:18;11.90;99.90
11848;DHT22;5983;49.966;8.052;2023-05-24T05:58:44;12.00;99.90
11848;DHT22;5983;49.966;8.052;2023-05-24T06:01:13;12.10;99.90
11848;DHT22;5983;49.966;8.052;2023-05-24T06:03:40;12.20;99.90
11848;DHT22;5983;49.966;8.052;2023-05-24T06:06:07;12.20;99.90
11848;DHT22;5983;49.966;8.052;2023-05-24T06:08:34;12.20;99.90
11848;DHT22;5983;49.966;8.052;2023-05-24T06:11:01;12.30;99.90
11848;DHT22;5983;49.966;8.052;2023-05-24T06:13:28;12.40;99.90
11848;DHT22;5983;49.966;8.052;2023-05-24T06:15:55;12.40;99.90
11848;DHT22;5983;49.966;8.052;2023-05-24T06:18:24;12.50;99.90
11848;DHT22;5983;49.966;8.052;2023-05-24T06:20:51;12.50;99.90
11848;DHT22;5983;49.966;8.052;2023-05-24T06:23:18;12.50;99.90
11848;DHT22;5983;49.966;8.052;2023-05-24T06:25:45;12.60;99.90
11848;DHT22;5983;49.966;8.052;2023-05-24T06:28:12;12.70;99.90
11848;DHT22;5983;49.966;8.052;2023-05-24T06:30:39;12.80;99.90
11848;DHT22;5983;49.966;8.052;2023-05-24T06:33:06;12.80;99.90
11848;DHT22;5983;49.966;8.052;2023-05-24T06:35:34;12.90;99.90
11848;DHT22;5983;49.966;8.052;2023-05-24T06:38:00;13.00;99.90
11848;DHT22;5983;49.966;8.052;2023-05-24T06:40:27;13.10;99.90
11848;DHT22;5983;49.966;8.052;2023-05-24T06:42:54;13.10;99.90
11848;DHT22;5983;49.966;8.052;2023-05-24T06:45:22;13.30;99.90
11848;DHT22;5983;49.966;8.052;2023-05-24T06:47:49;13.30;99.90
11848;DHT22;5983;49.966;8.052;2023-05-24T06:50:16;13.40;99.90
11848;DHT22;5983;49.966;8.052;2023-05-24T06:52:44;13.50;99.90
11848;DHT22;5983;49.966;8.052;2023-05-24T06:55:11;13.60;99.90
11848;DHT22;5983;49.966;8.052;2023-05-24T06:57:38;13.60;99.90
11848;DHT22;5983;49.966;8.052;2023-05-24T07:00:05;13.70;99.90
11848;DHT22;5983;49.966;8.052;2023-05-24T07:02:36;13.80;99.90
11848;DHT22;5983;49.966;8.052;2023-05-24T07:05:03;13.90;99.90
11848;DHT22;5983;49.966;8.052;2023-05-24T07:07:35;13.90;99.90
11848;DHT22;5983;49.966;8.052;2023-05-24T07:10:03;14.00;99.90
11848;DHT22;5983;49.966;8.052;2023-05-24T07:12:32;14.10;99.90
11848;DHT22;5983;49.966;8.052;2023-05-24T07:14:59;14.10;99.90
11848;DHT22;5983;49.966;8.052;2023-05-24T07:17:26;14.30;99.90
11848;DHT22;5983;49.966;8.052;2023-05-24T07:19:52;14.40;99.90
11848;DHT22;5983;49.966;8.052;2023-05-24T07:22:19;14.50;99.90
11848;DHT22;5983;49.966;8.052;2023-05-24T07:24:46;14.60;99.90
11848;DHT22;5983;49.966;8.052;2023-05-24T07:27:14;14.70;99.90
11848;DHT22;5983;49.966;8.052;2023-05-24T07:29:41;14.70;99.90
11848;DHT22;5983;49.966;8.052;2023-05-24T07:32:08;14.80;99.90
11848;DHT22;5983;49.966;8.052;2023-05-24T07:34:34;14.90;99.90
11848;DHT22;5983;49.966;8.052;2023-05-24T07:37:03;14.90;99.90
11848;DHT22;5983;49.966;8.052;2023-05-24T07:39:30;15.00;99.90
11848;DHT22;5983;49.966;8.052;2023-05-24T07:41:57;15.00;99.90
11848;DHT22;5983;49.966;8.052;2023-05-24T07:44:25;15.10;99.90
11848;DHT22;5983;49.966;8.052;2023-05-24T07:46:52;15.20;99.90
11848;DHT22;5983;49.966;8.052;2023-05-24T07:49:19;15.30;99.90
11848;DHT22;5983;49.966;8.052;2023-05-24T07:51:46;15.40;99.90
11848;DHT22;5983;49.966;8.052;2023-05-24T07:54:13;15.40;99.90
11848;DHT22;5983;49.966;8.052;2023-05-24T07:56:40;15.50;99.90
11848;DHT22;5983;49.966;8.052;2023-05-24T07:59:07;15.60;99.90
11848;DHT22;5983;49.966;8.052;2023-05-24T08:01:35;15.60;99.90
11848;DHT22;5983;49.966;8.052;2023-05-24T08:04:02;15.80;99.90
11848;DHT22;5983;49.966;8.052;2023-05-24T08:06:29;15.80;99.90
11848;DHT22;5983;49.966;8.052;2023-05-24T08:08:56;15.80;99.90
11848;DHT22;5983;49.966;8.052;2023-05-24T08:11:23;16.00;99.90
11848;DHT22;5983;49.966;8.052;2023-05-24T08:13:50;16.10;99.90
11848;DHT22;5983;49.966;8.052;2023-05-24T08:16:17;16.20;99.90
11848;DHT22;5983;49.966;8.052;2023-05-24T08:18:45;16.30;99.90
11848;DHT22;5983;49.966;8.052;2023-05-24T08:21:12;16.40;99.90
11848;DHT22;5983;49.966;8.052;2023-05-24T08:23:39;16.60;99.90
11848;DHT22;5983;49.966;8.052;2023-05-24T08:26:06;16.60;99.90
11848;DHT22;5983;49.966;8.052;2023-05-24T08:28:33;16.70;99.90
11848;DHT22;5983;49.966;8.052;2023-05-24T08:31:00;16.90;99.90
11848;DHT22;5983;49.966;8.052;2023-05-24T08:33:28;17.00;99.90
11848;DHT22;5983;49.966;8.052;2023-05-24T08:35:56;17.00;99.90
11848;DHT22;5983;49.966;8.052;2023-05-24T08:38:23;16.80;97.00
11848;DHT22;5983;49.966;8.052;2023-05-24T08:40:50;16.60;96.80
11848;DHT22;5983;49.966;8.052;2023-05-24T08:43:17;16.50;97.60
11848;DHT22;5983;49.966;8.052;2023-05-24T08:45:45;16.40;96.60
11848;DHT22;5983;49.966;8.052;2023-05-24T08:48:11;16.40;97.20
11848;DHT22;5983;49.966;8.052;2023-05-24T08:50:38;16.30;96.90
11848;DHT22;5983;49.966;8.052;2023-05-24T08:53:06;16.30;96.30
11848;DHT22;5983;49.966;8.052;2023-05-24T08:55:35;16.20;94.90
11848;DHT22;5983;49.966;8.052;2023-05-24T08:58:03;16.20;94.90
11848;DHT22;5983;49.966;8.052;2023-05-24T09:00:30;16.10;95.50
11848;DHT22;5983;49.966;8.052;2023-05-24T09:02:57;16.10;96.20
11848;DHT22;5983;49.966;8.052;2023-05-24T09:05:24;16.00;96.20
11848;DHT22;5983;49.966;8.052;2023-05-24T09:07:51;15.90;95.50
11848;DHT22;5983;49.966;8.052;2023-05-24T09:10:22;15.90;96.20
11848;DHT22;5983;49.966;8.052;2023-05-24T09:12:50;15.80;97.60
11848;DHT22;5983;49.966;8.052;2023-05-24T09:15:21;15.90;97.90
11848;DHT22;5983;49.966;8.052;2023-05-24T09:17:48;15.90;98.10
11848;DHT22;5983;49.966;8.052;2023-05-24T09:20:15;15.90;97.80
11848;DHT22;5983;49.966;8.052;2023-05-24T09:22:42;16.10;97.60
11848;DHT22;5983;49.966;8.052;2023-05-24T09:25:14;16.20;98.10
11848;DHT22;5983;49.966;8.052;2023-05-24T09:27:42;16.30;98.30
11848;DHT22;5983;49.966;8.052;2023-05-24T09:30:14;16.60;98.10
11848;DHT22;5983;49.966;8.052;2023-05-24T09:32:42;17.00;97.60
11848;DHT22;5983;49.966;8.052;2023-05-24T09:35:20;17.40;97.10
11848;DHT22;5983;49.966;8.052;2023-05-24T09:37:47;17.80;96.60
11848;DHT22;5983;49.966;8.052;2023-05-24T09:40:16;18.10;96.30
11848;DHT22;5983;49.966;8.052;2023-05-24T09:42:45;18.40;95.30
11848;DHT22;5983;49.966;8.052;2023-05-24T09:45:15;18.50;94.00
11848;DHT22;5983;49.966;8.052;2023-05-24T09:47:42;18.50;93.70
11848;DHT22;5983;49.966;8.052;2023-05-24T09:50:11;18.40;93.20
11848;DHT22;5983;49.966;8.052;2023-05-24T09:52:39;18.40;92.60
11848;DHT22;5983;49.966;8.052;2023-05-24T09:55:10;18.40;92.80
11848;DHT22;5983;49.966;8.052;2023-05-24T09:57:37;18.40;91.90
11848;DHT22;5983;49.966;8.052;2023-05-24T10:00:07;18.50;91.80
11848;DHT22;5983;49.966;8.052;2023-05-24T10:02:41;18.60;91.70
11848;DHT22;5983;49.966;8.052;2023-05-24T10:05:08;18.80;90.40
11848;DHT22;5983;49.966;8.052;2023-05-24T10:07:35;18.90;91.90
11848;DHT22;5983;49.966;8.052;2023-05-24T10:10:03;19.10;90.70
11848;DHT22;5983;49.966;8.052;2023-05-24T10:12:32;19.10;89.80
11848;DHT22;5983;49.966;8.052;2023-05-24T10:15:00;19.00;89.50
11848;DHT22;5983;49.966;8.052;2023-05-24T10:17:30;18.90;90.40
11848;DHT22;5983;49.966;8.052;2023-05-24T10:19:57;18.80;90.60
11848;DHT22;5983;49.966;8.052;2023-05-24T10:22:24;19.00;91.40
11848;DHT22;5983;49.966;8.052;2023-05-24T10:24:52;19.10;92.00
11848;DHT22;5983;49.966;8.052;2023-05-24T10:27:26;19.40;91.10
11848;DHT22;5983;49.966;8.052;2023-05-24T10:29:58;19.50;90.50
11848;DHT22;5983;49.966;8.052;2023-05-24T10:32:32;19.40;89.50
11848;DHT22;5983;49.966;8.052;2023-05-24T10:35:03;19.30;91.20
11848;DHT22;5983;49.966;8.052;2023-05-24T10:37:34;19.50;91.80
11848;DHT22;5983;49.966;8.052;2023-05-24T10:40:01;19.80;90.80
11848;DHT22;5983;49.966;8.052;2023-05-24T10:42:30;20.00;90.40
11848;DHT22;5983;49.966;8.052;2023-05-24T10:44:58;20.00;88.70
11848;DHT22;5983;49.966;8.052;2023-05-24T10:47:25;20.10;87.10
11848;DHT22;5983;49.966;8.052;2023-05-24T10:49:56;20.30;89.00
11848;DHT22;5983;49.966;8.052;2023-05-24T10:52:32;20.60;88.10
11848;DHT22;5983;49.966;8.052;2023-05-24T10:55:00;20.80;84.70
11848;DHT22;5983;49.966;8.052;2023-05-24T10:57:29;20.80;85.70
11848;DHT22;5983;49.966;8.052;2023-05-24T10:59:58;20.80;86.10
11848;DHT22;5983;49.966;8.052;2023-05-24T11:03:00;20.60;84.30
11848;DHT22;5983;49.966;8.052;2023-05-24T11:05:33;20.40;83.50
11848;DHT22;5983;49.966;8.052;2023-05-24T11:08:00;20.50;81.80
11848;DHT22;5983;49.966;8.052;2023-05-24T11:10:29;20.50;81.60
11848;DHT22;5983;49.966;8.052;2023-05-24T11:12:58;20.60;80.60
11848;DHT22;5983;49.966;8.052;2023-05-24T11:15:25;20.80;81.40
11848;DHT22;5983;49.966;8.052;2023-05-24T11:20:40;21.10;78.10
11848;DHT22;5983;49.966;8.052;2023-05-24T11:23:08;21.10;77.00
11848;DHT22;5983;49.966;8.052;2023-05-24T11:25:35;21.10;76.90
11848;DHT22;5983;49.966;8.052;2023-05-24T11:28:05;21.00;75.10
11848;DHT22;5983;49.966;8.052;2023-05-24T11:30:33;21.00;74.90
11848;DHT22;5983;49.966;8.052;2023-05-24T11:33:03;21.00;71.90
11848;DHT22;5983;49.966;8.052;2023-05-24T11:35:30;21.00;73.50
11848;DHT22;5983;49.966;8.052;2023-05-24T11:37:59;21.20;74.10
11848;DHT22;5983;49.966;8.052;2023-05-24T11:40:27;21.30;71.80
11848;DHT22;5983;49.966;8.052;2023-05-24T11:42:54;21.20;70.90
11848;DHT22;5983;49.966;8.052;2023-05-24T11:45:22;21.10;72.40
11848;DHT22;5983;49.966;8.052;2023-05-24T11:47:49;21.00;73.00
11848;DHT22;5983;49.966;8.052;2023-05-24T11:50:16;21.00;72.00
11848;DHT22;5983;49.966;8.052;2023-05-24T11:52:49;21.00;75.00
11848;DHT22;5983;49.966;8.052;2023-05-24T11:55:23;21.00;76.80
11848;DHT22;5983;49.966;8.052;2023-05-24T11:57:52;21.30;77.20
11848;DHT22;5983;49.966;8.052;2023-05-24T12:00:23;21.30;76.20
11848;DHT22;5983;49.966;8.052;2023-05-24T12:02:50;21.20;75.30
11848;DHT22;5983;49.966;8.052;2023-05-24T12:05:17;21.10;74.70
11848;DHT22;5983;49.966;8.052;2023-05-24T12:07:44;20.90;74.90
11848;DHT22;5983;49.966;8.052;2023-05-24T12:10:13;20.70;74.70
11848;DHT22;5983;49.966;8.052;2023-05-24T12:12:43;20.50;75.10
11848;DHT22;5983;49.966;8.052;2023-05-24T12:15:10;20.40;73.70
11848;DHT22;5983;49.966;8.052;2023-05-24T12:17:39;20.20;74.60
11848;DHT22;5983;49.966;8.052;2023-05-24T12:20:08;20.10;75.90
11848;DHT22;5983;49.966;8.052;2023-05-24T12:22:36;20.00;76.60
11848;DHT22;5983;49.966;8.052;2023-05-24T12:25:03;19.90;78.50
11848;DHT22;5983;49.966;8.052;2023-05-24T12:27:31;19.90;80.30
11848;DHT22;5983;49.966;8.052;2023-05-24T12:30:06;19.80;80.30
11848;DHT22;5983;49.966;8.052;2023-05-24T12:32:34;19.70;80.50
11848;DHT22;5983;49.966;8.052;2023-05-24T12:35:02;19.60;81.60
11848;DHT22;5983;49.966;8.052;2023-05-24T12:37:29;19.40;82.60
11848;DHT22;5983;49.966;8.052;2023-05-24T12:39:56;19.40;82.30
11848;DHT22;5983;49.966;8.052;2023-05-24T12:42:25;19.10;80.10
11848;DHT22;5983;49.966;8.052;2023-05-24T12:44:52;18.80;79.40
11848;DHT22;5983;49.966;8.052;2023-05-24T12:47:20;18.60;80.90
11848;DHT22;5983;49.966;8.052;2023-05-24T12:49:47;18.50;81.80
11848;DHT22;5983;49.966;8.052;2023-05-24T12:52:15;18.40;82.30
11848;DHT22;5983;49.966;8.052;2023-05-24T12:54:42;18.30;82.40
11848;DHT22;5983;49.966;8.052;2023-05-24T12:57:09;18.30;81.20
11848;DHT22;5983;49.966;8.052;2023-05-24T12:59:36;18.20;81.10
11848;DHT22;5983;49.966;8.052;2023-05-24T13:02:03;18.20;81.10
11848;DHT22;5983;49.966;8.052;2023-05-24T13:04:31;18.00;81.00
11848;DHT22;5983;49.966;8.052;2023-05-24T13:07:00;17.90;81.90
11848;DHT22;5983;49.966;8.052;2023-05-24T13:09:28;17.90;83.70
11848;DHT22;5983;49.966;8.052;2023-05-24T13:11:55;17.80;84.50
11848;DHT22;5983;49.966;8.052;2023-05-24T13:14:22;17.70;85.30
11848;DHT22;5983;49.966;8.052;2023-05-24T13:16:49;17.60;86.20
11848;DHT22;5983;49.966;8.052;2023-05-24T13:19:16;17.60;86.90
11848;DHT22;5983;49.966;8.052;2023-05-24T13:21:44;17.70;87.00
11848;DHT22;5983;49.966;8.052;2023-05-24T13:24:13;17.70;87.30
11848;DHT22;5983;49.966;8.052;2023-05-24T13:26:41;17.80;87.80
11848;DHT22;5983;49.966;8.052;2023-05-24T13:29:08;17.90;87.70
11848;DHT22;5983;49.966;8.052;2023-05-24T13:31:35;18.00;88.30
11848;DHT22;5983;49.966;8.052;2023-05-24T13:34:02;18.10;88.00
11848;DHT22;5983;49.966;8.052;2023-05-24T13:36:29;18.20;87.10
11848;DHT22;5983;49.966;8.052;2023-05-24T13:38:57;18.20;87.50
11848;DHT22;5983;49.966;8.052;2023-05-24T13:41:25;18.30;88.30
11848;DHT22;5983;49.966;8.052;2023-05-24T13:43:51;18.30;87.90
11848;DHT22;5983;49.966;8.052;2023-05-24T13:46:18;18.40;88.20
11848;DHT22;5983;49.966;8.052;2023-05-24T13:48:45;18.50;89.10
11848;DHT22;5983;49.966;8.052;2023-05-24T13:51:12;18.50;88.90
11848;DHT22;5983;49.966;8.052;2023-05-24T13:53:42;18.40;88.10
11848;DHT22;5983;49.966;8.052;2023-05-24T13:56:10;18.30;88.30
11848;DHT22;5983;49.966;8.052;2023-05-24T13:58:37;18.20;87.70
11848;DHT22;5983;49.966;8.052;2023-05-24T14:01:04;18.00;88.10
11848;DHT22;5983;49.966;8.052;2023-05-24T14:03:30;17.90;87.90
11848;DHT22;5983;49.966;8.052;2023-05-24T14:05:57;17.80;87.90
11848;DHT22;5983;49.966;8.052;2023-05-24T14:08:24;17.70;88.90
11848;DHT22;5983;49.966;8.052;2023-05-24T14:10:51;17.60;89.00
11848;DHT22;5983;49.966;8.052;2023-05-24T14:13:19;17.50;89.20
11848;DHT22;5983;49.966;8.052;2023-05-24T14:15:45;17.40;88.90
11848;DHT22;5983;49.966;8.052;2023-05-24T14:18:13;17.30;88.90
11848;DHT22;5983;49.966;8.052;2023-05-24T14:20:40;17.30;89.50
11848;DHT22;5983;49.966;8.052;2023-05-24T14:23:07;17.30;90.10
11848;DHT22;5983;49.966;8.052;2023-05-24T14:25:34;17.40;90.50
11848;DHT22;5983;49.966;8.052;2023-05-24T14:28:01;17.50;90.70
11848;DHT22;5983;49.966;8.052;2023-05-24T14:30:30;17.60;89.80
11848;DHT22;5983;49.966;8.052;2023-05-24T14:32:57;17.60;89.10
11848;DHT22;5983;49.966;8.052;2023-05-24T14:35:24;17.70;88.80
11848;DHT22;5983;49.966;8.052;2023-05-24T14:37:51;17.80;88.00
11848;DHT22;5983;49.966;8.052;2023-05-24T14:40:18;17.70;87.10
11848;DHT22;5983;49.966;8.052;2023-05-24T14:42:45;17.70;88.00
11848;DHT22;5983;49.966;8.052;2023-05-24T14:45:12;17.70;88.50
11848;DHT22;5983;49.966;8.052;2023-05-24T14:47:40;17.70;87.50
11848;DHT22;5983;49.966;8.052;2023-05-24T14:50:07;17.70;87.40
11848;DHT22;5983;49.966;8.052;2023-05-24T14:52:34;17.70;87.20
11848;DHT22;5983;49.966;8.052;2023-05-24T14:55:01;17.70;87.30
11848;DHT22;5983;49.966;8.052;2023-05-24T14:57:29;17.80;87.80
11848;DHT22;5983;49.966;8.052;2023-05-24T14:59:56;17.70;88.30
11848;DHT22;5983;49.966;8.052;2023-05-24T15:02:22;17.80;87.80
11848;DHT22;5983;49.966;8.052;2023-05-24T15:04:50;17.80;86.30
11848;DHT22;5983;49.966;8.052;2023-05-24T15:07:17;17.70;84.30
11848;DHT22;5983;49.966;8.052;2023-05-24T15:09:44;17.60;84.20
11848;DHT22;5983;49.966;8.052;2023-05-24T15:12:11;17.60;83.90
11848;DHT22;5983;49.966;8.052;2023-05-24T15:14:37;17.60;84.10
11848;DHT22;5983;49.966;8.052;2023-05-24T15:17:04;17.60;84.90
11848;DHT22;5983;49.966;8.052;2023-05-24T15:19:31;17.60;84.20
11848;DHT22;5983;49.966;8.052;2023-05-24T15:21:59;17.60;83.20
11848;DHT22;5983;49.966;8.052;2023-05-24T15:24:26;17.60;83.20
11848;DHT22;5983;49.966;8.052;2023-05-24T15:26:52;17.70;83.40
11848;DHT22;5983;49.966;8.052;2023-05-24T15:29:19;17.80;83.00
11848;DHT22;5983;49.966;8.052;2023-05-24T15:31:46;17.80;82.30
11848;DHT22;5983;49.966;8.052;2023-05-24T15:34:13;17.90;82.60
11848;DHT22;5983;49.966;8.052;2023-05-24T15:36:40;17.90;82.70
11848;DHT22;5983;49.966;8.052;2023-05-24T15:39:08;17.90;81.70
11848;DHT22;5983;49.966;8.052;2023-05-24T15:41:34;17.90;81.20
11848;DHT22;5983;49.966;8.052;2023-05-24T15:44:02;17.90;82.80
11848;DHT22;5983;49.966;8.052;2023-05-24T15:46:32;18.00;84.70
11848;DHT22;5983;49.966;8.052;2023-05-24T15:49:00;18.00;83.30
11848;DHT22;5983;49.966;8.052;2023-05-24T15:54:44;18.00;84.10
11848;DHT22;5983;49.966;8.052;2023-05-24T15:57:11;18.00;83.00
11848;DHT22;5983;49.966;8.052;2023-05-24T15:59:38;18.00;82.70